createdAt,value
2023-04-09T00:02:18.244Z,18.24
2023-04-09T00:04:45.375Z,18.21
2023-04-09T00:07:12.639Z,18.19
2023-04-09T00:09:40.641Z,18.13
2023-04-09T00:12:07.714Z,18.06
2023-04-09T00:14:38.078Z,18.03
2023-04-09T00:17:05.885Z,17.96
2023-04-09T00:19:33.904Z,17.93
2023-04-09T00:22:01.188Z,17.90
2023-04-09T00:24:28.304Z,17.87
2023-04-09T00:26:56.689Z,17.82
2023-04-09T00:29:28.736Z,17.77
2023-04-09T00:31:56.309Z,17.73
2023-04-09T00:34:23.473Z,17.72
2023-04-09T00:36:50.867Z,17.73
2023-04-09T00:39:18.039Z,17.72
2023-04-09T00:41:45.074Z,17.68
2023-04-09T00:44:12.406Z,17.66
2023-04-09T00:46:40.136Z,17.63
2023-04-09T00:49:07.574Z,17.61
2023-04-09T00:51:35.382Z,17.56
2023-04-09T00:54:02.618Z,17.55
2023-04-09T00:56:30.572Z,17.52
2023-04-09T00:58:58.058Z,17.49
2023-04-09T01:01:25.292Z,17.47
2023-04-09T01:03:52.659Z,17.46
2023-04-09T01:06:34.374Z,17.42
2023-04-09T01:09:43.224Z,17.41
2023-04-09T01:12:46.924Z,17.36
2023-04-09T01:15:26.020Z,17.36
2023-04-09T01:18:05.179Z,17.36
2023-04-09T01:20:42.855Z,17.34
2023-04-09T01:23:41.650Z,17.33
2023-04-09T01:26:53.489Z,17.33
2023-04-09T01:29:23.859Z,17.31
2023-04-09T01:31:52.386Z,17.31
2023-04-09T01:34:22.357Z,17.32
2023-04-09T01:36:56.440Z,17.30
2023-04-09T01:39:24.273Z,17.28
2023-04-09T01:41:52.040Z,17.27
2023-04-09T01:44:22.006Z,17.25
2023-04-09T01:46:51.160Z,17.25
2023-04-09T01:49:19.575Z,17.26
2023-04-09T01:51:48.526Z,17.26
2023-04-09T01:54:17.480Z,17.25
2023-04-09T01:56:46.278Z,17.24
2023-04-09T01:59:13.756Z,17.25
2023-04-09T02:01:59.105Z,17.23
2023-04-09T02:04:42.017Z,17.22
2023-04-09T02:07:27.458Z,17.23
2023-04-09T02:09:55.128Z,17.22
2023-04-09T02:12:23.497Z,17.22
2023-04-09T02:14:52.958Z,17.22
2023-04-09T02:17:20.614Z,17.21
2023-04-09T02:19:48.562Z,17.21
2023-04-09T02:22:17.569Z,17.22
2023-04-09T02:24:44.864Z,17.20
2023-04-09T02:27:11.848Z,17.21
2023-04-09T02:29:40.337Z,17.23
2023-04-09T02:32:07.836Z,17.24
2023-04-09T02:34:34.886Z,17.24
2023-04-09T02:37:02.373Z,17.22
2023-04-09T02:39:29.431Z,17.21
2023-04-09T02:41:56.704Z,17.22
2023-04-09T02:44:24.955Z,17.21
2023-04-09T02:46:55.133Z,17.23
2023-04-09T02:49:23.601Z,17.23
2023-04-09T02:51:51.130Z,17.23
2023-04-09T02:54:18.973Z,17.21
2023-04-09T02:56:45.995Z,17.23
2023-04-09T02:59:12.970Z,17.21
2023-04-09T03:01:40.061Z,17.21
2023-04-09T03:04:07.335Z,17.21
2023-04-09T03:06:34.830Z,17.18
2023-04-09T03:09:01.896Z,17.20
2023-04-09T03:11:28.887Z,17.18
2023-04-09T03:13:56.092Z,17.18
2023-04-09T03:16:25.466Z,17.19
2023-04-09T03:18:52.789Z,17.18
2023-04-09T03:21:20.046Z,17.20
2023-04-09T03:23:47.023Z,17.19
2023-04-09T03:26:14.050Z,17.20
2023-04-09T03:28:41.194Z,17.19
2023-04-09T03:31:08.259Z,17.21
2023-04-09T03:33:35.347Z,17.19
2023-04-09T03:36:02.377Z,17.17
2023-04-09T03:38:29.596Z,17.19
2023-04-09T03:40:57.402Z,17.19
2023-04-09T03:43:24.396Z,17.18
2023-04-09T03:45:51.429Z,17.20
2023-04-09T03:48:18.648Z,17.20
2023-04-09T03:50:45.743Z,17.19
2023-04-09T03:53:12.717Z,17.19
2023-04-09T03:55:39.935Z,17.20
2023-04-09T03:58:07.043Z,17.19
2023-04-09T04:00:34.006Z,17.20
2023-04-09T04:03:01.378Z,17.20
2023-04-09T04:05:28.629Z,17.19
2023-04-09T04:07:55.769Z,17.20
2023-04-09T04:10:22.857Z,17.21
2023-04-09T04:12:49.934Z,17.21
2023-04-09T04:15:17.270Z,17.22
2023-04-09T04:17:45.801Z,17.22
2023-04-09T04:20:13.151Z,17.22
2023-04-09T04:22:40.337Z,17.22
2023-04-09T04:25:07.506Z,17.24
2023-04-09T04:27:34.705Z,17.24
2023-04-09T04:30:02.571Z,17.25
2023-04-09T04:32:30.101Z,17.24
2023-04-09T04:34:57.180Z,17.23
2023-04-09T04:37:24.289Z,17.23
2023-04-09T04:39:51.731Z,17.23
2023-04-09T04:42:18.822Z,17.24
2023-04-09T04:44:46.191Z,17.25
2023-04-09T04:47:13.879Z,17.24
2023-04-09T04:49:41.123Z,17.25
2023-04-09T04:52:08.309Z,17.25
2023-04-09T04:54:35.635Z,17.24
2023-04-09T04:57:03.286Z,17.23
2023-04-09T04:59:30.322Z,17.27
2023-04-09T05:01:57.649Z,17.28
2023-04-09T05:04:24.792Z,17.30
2023-04-09T05:06:51.811Z,17.31
2023-04-09T05:09:21.183Z,17.33
2023-04-09T05:11:49.288Z,17.31
2023-04-09T05:14:16.598Z,17.33
2023-04-09T05:16:43.797Z,17.34
2023-04-09T05:19:10.899Z,17.38
2023-04-09T05:21:38.234Z,17.35
2023-04-09T05:24:05.580Z,17.32
2023-04-09T05:26:32.584Z,17.43
2023-04-09T05:28:59.611Z,17.53
2023-04-09T05:31:27.559Z,17.62
2023-04-09T05:33:54.832Z,17.68
2023-04-09T05:36:21.870Z,17.73
2023-04-09T05:38:48.990Z,17.78
2023-04-09T05:41:17.288Z,17.80
2023-04-09T05:43:45.394Z,17.86
2023-04-09T05:46:12.937Z,17.87
2023-04-09T05:48:40.151Z,17.91
2023-04-09T05:51:07.356Z,17.86
2023-04-09T05:53:34.712Z,17.83
2023-04-09T05:56:04.088Z,17.84
2023-04-09T05:58:31.131Z,17.86
2023-04-09T06:00:58.502Z,17.86
2023-04-09T06:03:25.722Z,17.89
2023-04-09T06:05:56.306Z,17.89
2023-04-09T06:08:23.247Z,17.95
2023-04-09T06:10:50.228Z,17.94
2023-04-09T06:13:17.196Z,17.79
2023-04-09T06:15:44.225Z,17.67
2023-04-09T06:18:11.443Z,17.65
2023-04-09T06:20:38.479Z,17.63
2023-04-09T06:23:06.135Z,17.62
2023-04-09T06:25:33.799Z,17.67
2023-04-09T06:28:01.325Z,17.72
2023-04-09T06:30:28.292Z,17.84
2023-04-09T06:32:55.691Z,17.89
2023-04-09T06:35:23.683Z,17.95
2023-04-09T06:37:51.605Z,17.98
2023-04-09T06:40:20.109Z,18.01
2023-04-09T06:42:48.462Z,18.06
2023-04-09T06:45:16.171Z,18.08
2023-04-09T06:47:43.415Z,18.05
2023-04-09T06:50:11.010Z,18.07
2023-04-09T06:52:38.106Z,18.09
2023-04-09T06:55:05.637Z,18.13
2023-04-09T06:57:32.637Z,18.15
2023-04-09T06:59:59.614Z,18.18
2023-04-09T07:02:26.992Z,18.21
2023-04-09T07:04:54.124Z,18.24
2023-04-09T07:10:10.309Z,18.25
2023-04-09T07:12:37.559Z,18.23
2023-04-09T07:15:07.080Z,18.27
2023-04-09T07:17:35.156Z,18.27
2023-04-09T07:20:02.390Z,18.27
2023-04-09T07:22:31.428Z,18.29
2023-04-09T07:24:59.668Z,18.32
2023-04-09T07:27:28.318Z,18.32
2023-04-09T07:29:59.685Z,18.31
2023-04-09T07:32:31.281Z,18.36
2023-04-09T07:34:59.779Z,18.37
2023-04-09T07:37:27.587Z,18.38
2023-04-09T07:39:54.905Z,18.40
2023-04-09T07:42:22.500Z,18.41
2023-04-09T07:44:55.862Z,18.42
2023-04-09T07:47:24.387Z,18.39
2023-04-09T07:49:52.143Z,18.37
2023-04-09T07:52:20.691Z,18.39
2023-04-09T07:54:47.954Z,18.38
2023-04-09T07:57:18.171Z,18.37
2023-04-09T07:59:45.560Z,18.36
2023-04-09T08:02:15.011Z,18.37
2023-04-09T08:04:42.774Z,18.44
2023-04-09T08:07:13.458Z,18.51
2023-04-09T08:09:40.867Z,18.52
2023-04-09T08:12:08.765Z,18.55
2023-04-09T08:14:36.311Z,18.58
2023-04-09T08:17:03.482Z,18.49
2023-04-09T08:19:30.961Z,18.42
2023-04-09T08:21:59.260Z,18.42
2023-04-09T08:24:26.496Z,18.41
2023-04-09T08:26:53.801Z,18.39
2023-04-09T08:29:21.144Z,18.43
2023-04-09T08:31:48.306Z,18.52
2023-04-09T08:34:16.539Z,18.57
2023-04-09T08:36:47.141Z,18.57
2023-04-09T08:39:14.176Z,18.52
2023-04-09T08:41:45.236Z,18.53
2023-04-09T08:44:12.544Z,18.53
2023-04-09T08:46:39.763Z,18.48
2023-04-09T08:49:11.406Z,18.45
2023-04-09T08:51:39.754Z,18.47
2023-04-09T08:54:07.870Z,18.44
2023-04-09T08:56:35.710Z,18.37
2023-04-09T08:59:03.044Z,18.23
2023-04-09T09:01:32.238Z,18.09
2023-04-09T09:04:09.910Z,17.87
2023-04-09T09:06:39.338Z,17.70
2023-04-09T09:09:13.685Z,17.52
2023-04-09T09:11:48.883Z,17.45
2023-04-09T09:14:19.668Z,17.31
2023-04-09T09:16:59.137Z,17.28
2023-04-09T09:19:26.594Z,17.25
2023-04-09T09:22:02.255Z,17.33
2023-04-09T09:24:30.076Z,17.32
2023-04-09T09:27:00.062Z,17.26
2023-04-09T09:29:28.045Z,17.23
2023-04-09T09:31:56.639Z,17.17
2023-04-09T09:34:25.406Z,17.13
2023-04-09T09:36:52.607Z,17.09
2023-04-09T09:39:19.969Z,17.10
2023-04-09T09:41:47.606Z,17.11
2023-04-09T09:44:32.313Z,17.10
2023-04-09T09:46:59.980Z,17.06
2023-04-09T09:49:27.129Z,17.13
2023-04-09T09:51:58.995Z,17.14
2023-04-09T09:54:28.686Z,17.17
2023-04-09T09:57:03.325Z,17.23
2023-04-09T09:59:37.995Z,17.27
2023-04-09T10:02:07.919Z,17.32
2023-04-09T10:04:38.606Z,17.35
2023-04-09T10:07:08.042Z,17.38
2023-04-09T10:09:38.351Z,17.42
2023-04-09T10:12:07.786Z,17.47
2023-04-09T10:14:36.608Z,17.47
2023-04-09T10:17:04.595Z,17.54
2023-04-09T10:19:36.091Z,17.58
2023-04-09T10:22:11.962Z,17.58
2023-04-09T10:24:39.606Z,17.59
2023-04-09T10:27:15.910Z,17.59
2023-04-09T10:29:45.867Z,17.66
2023-04-09T10:32:14.011Z,17.66
2023-04-09T10:34:45.423Z,17.67
2023-04-09T10:37:30.736Z,17.66
2023-04-09T10:39:58.689Z,17.66
2023-04-09T10:42:40.756Z,17.69
2023-04-09T10:45:09.676Z,17.73
2023-04-09T10:47:41.792Z,17.71
2023-04-09T10:50:17.516Z,17.73
2023-04-09T10:52:44.998Z,17.73
2023-04-09T10:55:35.584Z,17.80
2023-04-09T10:58:04.817Z,17.75
2023-04-09T11:00:32.256Z,17.72
2023-04-09T11:03:02.329Z,17.71
2023-04-09T11:05:38.840Z,17.64
2023-04-09T11:08:15.141Z,17.57
2023-04-09T11:10:45.125Z,17.64
2023-04-09T11:13:14.453Z,17.54
2023-04-09T11:15:41.523Z,17.55
2023-04-09T11:18:12.601Z,17.61
2023-04-09T11:20:40.647Z,17.68
2023-04-09T11:23:08.240Z,17.69
2023-04-09T11:25:35.996Z,17.71
2023-04-09T11:28:05.305Z,17.73
2023-04-09T11:30:34.805Z,17.73
2023-04-09T11:33:02.838Z,17.72
2023-04-09T11:35:30.133Z,17.66
2023-04-09T11:37:57.540Z,17.63
2023-04-09T11:40:27.020Z,17.60
2023-04-09T11:42:55.639Z,17.60
2023-04-09T11:45:27.666Z,17.62
2023-04-09T11:47:55.525Z,17.71
2023-04-09T11:50:23.465Z,17.70
2023-04-09T11:52:51.010Z,17.67
2023-04-09T11:55:29.208Z,17.73
2023-04-09T11:58:01.758Z,17.72
2023-04-09T12:00:29.760Z,17.69
2023-04-09T12:03:03.274Z,17.71
2023-04-09T12:05:33.377Z,17.68
2023-04-09T12:08:05.634Z,17.67
2023-04-09T12:10:34.872Z,17.70
2023-04-09T12:13:07.557Z,17.77
2023-04-09T12:15:37.397Z,17.87
2023-04-09T12:18:07.962Z,17.98
2023-04-09T12:20:44.601Z,18.04
2023-04-09T12:23:12.885Z,18.10
2023-04-09T12:25:44.599Z,18.14
2023-04-09T12:28:15.980Z,18.17
2023-04-09T12:30:44.850Z,18.24
2023-04-09T12:33:11.912Z,18.25
2023-04-09T12:35:39.522Z,18.29
2023-04-09T12:38:06.822Z,18.31
2023-04-09T12:40:34.450Z,18.37
2023-04-09T12:43:02.060Z,18.41
2023-04-09T12:45:31.152Z,18.44
2023-04-09T12:48:00.223Z,18.44
2023-04-09T12:50:27.508Z,18.40
2023-04-09T12:52:57.436Z,18.26
2023-04-09T12:55:25.013Z,18.27
2023-04-09T12:57:52.501Z,18.28
2023-04-09T13:00:19.791Z,18.29
2023-04-09T13:02:47.456Z,18.27
2023-04-09T13:05:15.282Z,18.32
2023-04-09T13:07:44.092Z,18.31
2023-04-09T13:10:11.684Z,18.37
2023-04-09T13:12:39.044Z,18.37
2023-04-09T13:15:06.324Z,18.28
2023-04-09T13:17:33.659Z,18.14
2023-04-09T13:20:00.703Z,18.03
2023-04-09T13:22:27.787Z,18.02
2023-04-09T13:24:55.180Z,17.98
2023-04-09T13:27:22.749Z,18.08
2023-04-09T13:29:50.682Z,18.07
2023-04-09T13:32:19.430Z,18.03
2023-04-09T13:34:46.634Z,17.92
2023-04-09T13:37:14.019Z,17.83
2023-04-09T13:39:41.387Z,17.80
2023-04-09T13:42:13.664Z,17.87
2023-04-09T13:44:45.109Z,17.89
2023-04-09T13:47:13.969Z,17.86
2023-04-09T13:49:42.469Z,17.77
2023-04-09T13:52:11.436Z,17.76
2023-04-09T13:54:41.149Z,17.75
2023-04-09T13:57:08.693Z,17.72
2023-04-09T13:59:36.562Z,17.67
2023-04-09T14:02:04.007Z,17.71
2023-04-09T14:04:31.388Z,17.79
2023-04-09T14:06:58.834Z,17.73
2023-04-09T14:09:26.128Z,17.78
2023-04-09T14:11:55.438Z,17.75
2023-04-09T14:14:22.837Z,17.66
2023-04-09T14:16:51.276Z,17.64
2023-04-09T14:19:20.046Z,17.58
2023-04-09T14:21:47.252Z,17.59
2023-04-09T14:24:14.511Z,17.68
2023-04-09T14:26:42.429Z,17.58
2023-04-09T14:29:09.498Z,17.53
2023-04-09T14:31:36.969Z,17.52
2023-04-09T14:34:04.398Z,17.47
2023-04-09T14:36:33.096Z,17.53
2023-04-09T14:39:01.358Z,17.52
2023-04-09T14:41:28.566Z,17.54
2023-04-09T14:43:55.852Z,17.54
2023-04-09T14:46:23.756Z,17.49
2023-04-09T14:48:51.534Z,17.54
2023-04-09T14:51:19.144Z,17.64
2023-04-09T14:53:46.934Z,17.75
2023-04-09T14:56:14.019Z,17.84
2023-04-09T14:58:41.595Z,17.91
2023-04-09T15:01:08.893Z,17.98
2023-04-09T15:03:36.339Z,18.06
2023-04-09T15:06:03.700Z,18.12
2023-04-09T15:08:31.877Z,18.18
2023-04-09T15:10:59.189Z,18.24
2023-04-09T15:13:26.552Z,18.30
2023-04-09T15:15:54.049Z,18.35
2023-04-09T15:18:21.885Z,18.44
2023-04-09T15:20:49.472Z,18.51
2023-04-09T15:23:16.891Z,18.60
2023-04-09T15:25:44.071Z,18.67
2023-04-09T15:28:11.388Z,18.73
2023-04-09T15:30:38.691Z,18.81
2023-04-09T15:33:06.298Z,18.89
2023-04-09T15:35:33.605Z,18.96
2023-04-09T15:38:02.648Z,19.03
2023-04-09T15:40:31.504Z,19.13
2023-04-09T15:43:00.002Z,19.19
2023-04-09T15:45:27.521Z,19.24
2023-04-09T15:47:55.015Z,19.29
2023-04-09T15:50:22.591Z,19.37
2023-04-09T15:52:50.527Z,19.46
2023-04-09T15:55:17.756Z,19.46
2023-04-09T15:57:47.310Z,19.31
2023-04-09T16:00:15.967Z,19.20
2023-04-09T16:02:43.657Z,19.01
2023-04-09T16:05:11.063Z,19.04
2023-04-09T16:07:42.814Z,19.20
2023-04-09T16:10:10.548Z,19.23
2023-04-09T16:12:37.868Z,19.26
2023-04-09T16:15:05.675Z,19.30
2023-04-09T16:17:40.266Z,19.35
2023-04-09T16:20:09.108Z,19.40
2023-04-09T16:22:36.657Z,19.48
2023-04-09T16:25:04.016Z,19.53
2023-04-09T16:27:31.333Z,19.60
2023-04-09T16:29:58.903Z,19.65
2023-04-09T16:32:26.304Z,19.69
2023-04-09T16:34:53.897Z,19.75
2023-04-09T16:37:21.191Z,19.79
2023-04-09T16:39:48.571Z,19.84
2023-04-09T16:42:15.621Z,19.87
2023-04-09T16:44:42.735Z,19.91
2023-04-09T16:47:10.098Z,19.95
2023-04-09T16:49:37.274Z,19.99
2023-04-09T16:52:04.425Z,20.06
2023-04-09T16:54:31.587Z,20.13
2023-04-09T16:56:59.414Z,20.19
2023-04-09T16:59:26.959Z,20.23
2023-04-09T17:01:54.372Z,20.25
2023-04-09T17:04:21.888Z,20.31
2023-04-09T17:06:48.973Z,20.37
2023-04-09T17:09:20.036Z,20.45
2023-04-09T17:11:47.554Z,20.48
2023-04-09T17:14:14.770Z,20.51
2023-04-09T17:16:43.047Z,20.53
2023-04-09T17:19:11.396Z,20.54
2023-04-09T17:21:39.878Z,20.57
2023-04-09T17:24:06.993Z,20.58
2023-04-09T17:26:34.750Z,20.62
2023-04-09T17:29:02.452Z,20.65
2023-04-09T17:31:29.682Z,20.61
2023-04-09T17:33:57.544Z,20.55
2023-04-09T17:36:25.156Z,20.54
2023-04-09T17:38:53.354Z,20.54
2023-04-09T17:41:20.779Z,20.52
2023-04-09T17:43:48.748Z,20.55
2023-04-09T17:46:17.400Z,20.54
2023-04-09T17:48:44.953Z,20.59
2023-04-09T17:51:19.590Z,20.61
2023-04-09T17:53:47.923Z,20.61
2023-04-09T17:56:18.656Z,20.56
2023-04-09T17:58:47.518Z,20.46
2023-04-09T18:01:15.193Z,20.47
2023-04-09T18:03:43.454Z,20.54
2023-04-09T18:06:11.058Z,20.54
2023-04-09T18:08:38.675Z,20.52
2023-04-09T18:11:12.054Z,20.52
2023-04-09T18:13:40.892Z,20.52
2023-04-09T18:16:14.308Z,20.51
2023-04-09T18:18:44.108Z,20.53
2023-04-09T18:21:11.448Z,20.52
2023-04-09T18:23:40.784Z,20.52
2023-04-09T18:26:08.872Z,20.51
2023-04-09T18:28:36.173Z,20.52
2023-04-09T18:31:04.883Z,20.50
2023-04-09T18:33:32.296Z,20.49
2023-04-09T18:36:02.845Z,20.48
2023-04-09T18:38:30.858Z,20.50
2023-04-09T18:40:58.303Z,20.49
2023-04-09T18:43:28.419Z,20.51
2023-04-09T18:45:56.395Z,20.47
2023-04-09T18:48:24.893Z,20.43
2023-04-09T18:50:51.964Z,20.39
2023-04-09T18:53:19.231Z,20.40
2023-04-09T18:55:46.942Z,20.44
2023-04-09T18:58:15.712Z,20.44
2023-04-09T19:00:44.019Z,20.44
2023-04-09T19:03:13.131Z,20.41
2023-04-09T19:05:40.714Z,20.41
2023-04-09T19:08:12.811Z,20.37
2023-04-09T19:10:40.686Z,20.35
2023-04-09T19:13:09.017Z,20.34
2023-04-09T19:15:36.939Z,20.35
2023-04-09T19:18:04.736Z,20.30
2023-04-09T19:20:33.296Z,20.28
2023-04-09T19:23:01.818Z,20.24
2023-04-09T19:25:31.926Z,20.21
2023-04-09T19:28:00.618Z,20.19
2023-04-09T19:30:29.361Z,20.20
2023-04-09T19:32:57.322Z,20.18
2023-04-09T19:35:25.000Z,20.15
2023-04-09T19:37:52.652Z,20.14
2023-04-09T19:40:26.030Z,20.11
2023-04-09T19:42:53.870Z,20.10
2023-04-09T19:45:23.303Z,20.06
2023-04-09T19:47:54.482Z,20.04
2023-04-09T19:50:24.262Z,20.16
2023-04-09T19:52:54.156Z,20.18
2023-04-09T19:55:24.872Z,20.19
2023-04-09T19:57:53.308Z,20.17
2023-04-09T20:00:20.929Z,20.19
2023-04-09T20:02:51.834Z,20.17
2023-04-09T20:05:21.798Z,20.23
2023-04-09T20:07:51.499Z,20.29
2023-04-09T20:10:21.358Z,20.27
2023-04-09T20:12:50.539Z,20.27
2023-04-09T20:15:23.316Z,20.24
2023-04-09T20:17:52.274Z,20.23
2023-04-09T20:20:20.870Z,20.22
2023-04-09T20:22:56.162Z,20.22
2023-04-09T20:25:25.213Z,20.23
2023-04-09T20:27:56.676Z,20.24
2023-04-09T20:30:26.763Z,20.20
2023-04-09T20:32:54.644Z,20.17
2023-04-09T20:35:23.325Z,20.16
2023-04-09T20:37:52.898Z,20.17
2023-04-09T20:40:21.567Z,20.10
2023-04-09T20:42:51.420Z,20.09
2023-04-09T20:45:18.907Z,19.91
2023-04-09T20:47:47.526Z,19.85
2023-04-09T20:50:17.260Z,19.83
2023-04-09T20:52:45.657Z,19.89
2023-04-09T20:55:16.139Z,19.91
2023-04-09T20:57:55.002Z,19.91
2023-04-09T21:00:23.257Z,19.89
2023-04-09T21:02:52.330Z,19.90
2023-04-09T21:05:24.020Z,19.89
2023-04-09T21:07:58.236Z,19.87
2023-04-09T21:10:25.967Z,19.85
2023-04-09T21:12:53.977Z,19.85
2023-04-09T21:15:21.734Z,19.82
2023-04-09T21:17:53.847Z,19.81
2023-04-09T21:20:22.602Z,19.79
2023-04-09T21:22:50.087Z,19.76
2023-04-09T21:25:17.855Z,19.76
2023-04-09T21:27:46.439Z,19.75
2023-04-09T21:30:13.999Z,19.74
2023-04-09T21:32:41.975Z,19.72
2023-04-09T21:35:09.395Z,19.70
2023-04-09T21:37:39.970Z,19.67
2023-04-09T21:40:11.521Z,19.66
2023-04-09T21:42:41.556Z,19.64
2023-04-09T21:45:09.433Z,19.62
2023-04-09T21:47:37.122Z,19.59
2023-04-09T21:50:05.766Z,19.58
2023-04-09T21:52:36.085Z,19.56
2023-04-09T21:55:04.870Z,19.55
2023-04-09T21:57:32.220Z,19.54
2023-04-09T21:59:59.680Z,19.52
2023-04-09T22:02:28.611Z,19.50
2023-04-09T22:04:56.197Z,19.48
2023-04-09T22:07:23.616Z,19.46
2023-04-09T22:09:55.044Z,19.42
2023-04-09T22:12:22.929Z,19.40
2023-04-09T22:14:52.750Z,19.37
2023-04-09T22:17:20.006Z,19.34
2023-04-09T22:19:47.619Z,19.34
2023-04-09T22:22:15.715Z,19.34
2023-04-09T22:24:44.561Z,19.31
2023-04-09T22:27:12.464Z,19.30
2023-04-09T22:29:39.856Z,19.29
2023-04-09T22:32:07.088Z,19.27
2023-04-09T22:34:34.573Z,19.23
2023-04-09T22:37:02.562Z,19.21
2023-04-09T22:39:29.945Z,19.20
2023-04-09T22:41:57.209Z,19.16
2023-04-09T22:44:25.268Z,19.15
2023-04-09T22:46:52.784Z,19.15
2023-04-09T22:49:20.103Z,19.14
2023-04-09T22:51:47.698Z,19.11
2023-04-09T22:54:15.063Z,19.07
2023-04-09T22:56:42.703Z,19.05
2023-04-09T22:59:10.074Z,19.05
2023-04-09T23:01:37.177Z,19.02
2023-04-09T23:04:04.389Z,19.01
2023-04-09T23:06:31.660Z,19.00
2023-04-09T23:09:00.177Z,18.99
2023-04-09T23:11:27.748Z,18.96
2023-04-09T23:13:55.119Z,18.95
2023-04-09T23:16:23.329Z,18.91
2023-04-09T23:18:50.725Z,18.91
2023-04-09T23:21:17.830Z,18.90
2023-04-09T23:23:45.058Z,18.89
2023-04-09T23:26:12.616Z,18.88
2023-04-09T23:28:39.791Z,18.86
2023-04-09T23:31:07.516Z,18.83
2023-04-09T23:33:34.868Z,18.83
2023-04-09T23:36:01.943Z,18.82
2023-04-09T23:38:29.016Z,18.80
2023-04-09T23:40:56.290Z,18.79
2023-04-09T23:43:23.404Z,18.76
2023-04-09T23:45:51.073Z,18.75
2023-04-09T23:48:18.094Z,18.74
2023-04-09T23:50:45.268Z,18.71
2023-04-09T23:53:12.535Z,18.68
2023-04-09T23:55:41.650Z,18.66
2023-04-09T23:58:09.948Z,18.66
